sensor_id;sensor_type;location;lat;lon;timestamp;pressure;altitude;pressure_sealevel;temperature;humidity
9035;BME280;4552;43.422;24.592;2023-04-27T00:02:01;99642.34;;;10.64;100.00
9035;BME280;4552;43.422;24.592;2023-04-27T00:04:28;99652.97;;;10.54;100.00
9035;BME280;4552;43.422;24.592;2023-04-27T00:27:07;99654.03;;;10.44;100.00
9035;BME280;4552;43.422;24.592;2023-04-27T00:29:34;99655.75;;;10.45;100.00
9035;BME280;4552;43.422;24.592;2023-04-27T00:32:04;99650.63;;;10.39;100.00
9035;BME280;4552;43.422;24.592;2023-04-27T00:34:32;99650.47;;;10.48;100.00
9035;BME280;4552;43.422;24.592;2023-04-27T00:44:08;99657.63;;;10.39;100.00
9035;BME280;4552;43.422;24.592;2023-04-27T00:46:35;99652.22;;;10.48;100.00
9035;BME280;4552;43.422;24.592;2023-04-27T00:49:02;99644.50;;;10.42;100.00
9035;BME280;4552;43.422;24.592;2023-04-27T00:51:30;99642.13;;;10.28;100.00
9035;BME280;4552;43.422;24.592;2023-04-27T00:53:59;99652.38;;;10.40;100.00
9035;BME280;4552;43.422;24.592;2023-04-27T00:56:41;99659.19;;;10.49;100.00
9035;BME280;4552;43.422;24.592;2023-04-27T00:59:09;99662.63;;;10.52;100.00
9035;BME280;4552;43.422;24.592;2023-04-27T01:01:36;99662.66;;;10.49;100.00
9035;BME280;4552;43.422;24.592;2023-04-27T01:04:03;99669.75;;;10.43;100.00
9035;BME280;4552;43.422;24.592;2023-04-27T01:06:30;99668.59;;;10.57;100.00
9035;BME280;4552;43.422;24.592;2023-04-27T01:08:57;99660.63;;;10.67;100.00
9035;BME280;4552;43.422;24.592;2023-04-27T01:11:43;99668.53;;;10.64;100.00
9035;BME280;4552;43.422;24.592;2023-04-27T01:14:11;99671.97;;;10.64;100.00
9035;BME280;4552;43.422;24.592;2023-04-27T01:16:38;99683.38;;;10.62;100.00
9035;BME280;4552;43.422;24.592;2023-04-27T01:19:06;99680.00;;;10.55;100.00
9035;BME280;4552;43.422;24.592;2023-04-27T01:45:22;99680.31;;;10.37;100.00
9035;BME280;4552;43.422;24.592;2023-04-27T01:47:54;99680.47;;;10.29;100.00
9035;BME280;4552;43.422;24.592;2023-04-27T01:50:21;99678.53;;;10.40;100.00
9035;BME280;4552;43.422;24.592;2023-04-27T01:52:48;99666.47;;;10.30;100.00
9035;BME280;4552;43.422;24.592;2023-04-27T01:55:15;99671.56;;;10.39;100.00
9035;BME280;4552;43.422;24.592;2023-04-27T01:57:42;99681.19;;;10.39;100.00
9035;BME280;4552;43.422;24.592;2023-04-27T02:00:25;99672.31;;;10.46;100.00
9035;BME280;4552;43.422;24.592;2023-04-27T02:02:58;99672.59;;;10.31;100.00
9035;BME280;4552;43.422;24.592;2023-04-27T02:12:14;99677.03;;;10.24;100.00
9035;BME280;4552;43.422;24.592;2023-04-27T02:14:53;99683.91;;;10.33;100.00
9035;BME280;4552;43.422;24.592;2023-04-27T02:17:40;99681.25;;;10.34;100.00
9035;BME280;4552;43.422;24.592;2023-04-27T02:20:09;99678.88;;;10.19;100.00
9035;BME280;4552;43.422;24.592;2023-04-27T02:29:19;99695.69;;;10.02;100.00
9035;BME280;4552;43.422;24.592;2023-04-27T02:31:48;99696.34;;;10.17;100.00
9035;BME280;4552;43.422;24.592;2023-04-27T02:34:16;99693.75;;;10.17;100.00
9035;BME280;4552;43.422;24.592;2023-04-27T02:36:43;99675.59;;;10.05;100.00
9035;BME280;4552;43.422;24.592;2023-04-27T02:39:10;99697.97;;;10.24;100.00
9035;BME280;4552;43.422;24.592;2023-04-27T02:41:37;99694.47;;;10.25;100.00
9035;BME280;4552;43.422;24.592;2023-04-27T02:44:04;99708.31;;;10.32;100.00
9035;BME280;4552;43.422;24.592;2023-04-27T02:46:31;99704.91;;;10.25;100.00
9035;BME280;4552;43.422;24.592;2023-04-27T02:48:57;99702.28;;;10.28;100.00
9035;BME280;4552;43.422;24.592;2023-04-27T02:51:26;99689.22;;;10.25;100.00
9035;BME280;4552;43.422;24.592;2023-04-27T02:53:53;99709.78;;;10.49;100.00
9035;BME280;4552;43.422;24.592;2023-04-27T02:56:33;99703.09;;;10.30;100.00
9035;BME280;4552;43.422;24.592;2023-04-27T02:59:04;99702.31;;;10.27;100.00
9035;BME280;4552;43.422;24.592;2023-04-27T03:01:31;99708.34;;;10.30;100.00
9035;BME280;4552;43.422;24.592;2023-04-27T03:03:57;99708.34;;;10.30;100.00
9035;BME280;4552;43.422;24.592;2023-04-27T03:13:13;99706.47;;;10.38;100.00
9035;BME280;4552;43.422;24.592;2023-04-27T03:15:40;99696.41;;;10.65;100.00
9035;BME280;4552;43.422;24.592;2023-04-27T03:18:07;99712.56;;;10.88;100.00
9035;BME280;4552;43.422;24.592;2023-04-27T03:20:34;99706.78;;;10.69;100.00
9035;BME280;4552;43.422;24.592;2023-04-27T03:23:01;99712.56;;;10.88;100.00
9035;BME280;4552;43.422;24.592;2023-04-27T03:25:28;99722.56;;;10.66;100.00
9035;BME280;4552;43.422;24.592;2023-04-27T03:27:55;99731.13;;;10.76;100.00
9035;BME280;4552;43.422;24.592;2023-04-27T03:30:23;99720.03;;;10.62;100.00
9035;BME280;4552;43.422;24.592;2023-04-27T03:32:50;99717.06;;;10.80;100.00
9035;BME280;4552;43.422;24.592;2023-04-27T03:35:17;99725.25;;;10.62;100.00
9035;BME280;4552;43.422;24.592;2023-04-27T03:37:44;99743.00;;;10.43;100.00
9035;BME280;4552;43.422;24.592;2023-04-27T03:40:12;99747.41;;;10.41;100.00
9035;BME280;4552;43.422;24.592;2023-04-27T03:42:39;99719.72;;;10.28;100.00
9035;BME280;4552;43.422;24.592;2023-04-27T03:45:07;99743.47;;;10.16;100.00
9035;BME280;4552;43.422;24.592;2023-04-27T03:47:39;99753.91;;;10.17;100.00
9035;BME280;4552;43.422;24.592;2023-04-27T03:50:09;99750.53;;;10.09;100.00
9035;BME280;4552;43.422;24.592;2023-04-27T04:46:28;99793.00;;;9.58;100.00
9035;BME280;4552;43.422;24.592;2023-04-27T04:48:55;99782.50;;;9.63;100.00
9035;BME280;4552;43.422;24.592;2023-04-27T05:01:29;99794.28;;;11.06;100.00
9035;BME280;4552;43.422;24.592;2023-04-27T05:03:56;99804.78;;;11.05;100.00
9035;BME280;4552;43.422;24.592;2023-04-27T05:19:53;99817.44;;;10.79;95.74
9035;BME280;4552;43.422;24.592;2023-04-27T05:25:41;99821.56;;;10.38;96.84
9035;BME280;4552;43.422;24.592;2023-04-27T05:28:10;99830.28;;;10.40;97.10
9035;BME280;4552;43.422;24.592;2023-04-27T05:30:37;99829.44;;;10.37;95.53
9035;BME280;4552;43.422;24.592;2023-04-27T05:33:07;99827.88;;;10.24;96.08
9035;BME280;4552;43.422;24.592;2023-04-27T05:35:35;99826.03;;;10.30;96.13
9035;BME280;4552;43.422;24.592;2023-04-27T06:05:16;99856.66;;;11.33;89.02
9035;BME280;4552;43.422;24.592;2023-04-27T06:07:43;99857.75;;;11.69;88.30
9035;BME280;4552;43.422;24.592;2023-04-27T06:10:20;99865.44;;;11.78;86.08
9035;BME280;4552;43.422;24.592;2023-04-27T06:12:49;99865.97;;;11.95;84.51
9035;BME280;4552;43.422;24.592;2023-04-27T06:15:16;99863.97;;;12.06;83.44
9035;BME280;4552;43.422;24.592;2023-04-27T06:17:42;99846.91;;;12.27;82.56
9035;BME280;4552;43.422;24.592;2023-04-27T06:20:10;99860.94;;;12.26;81.44
9035;BME280;4552;43.422;24.592;2023-04-27T06:22:39;99860.63;;;12.39;81.24
9035;BME280;4552;43.422;24.592;2023-04-27T06:25:10;99844.28;;;11.87;80.76
9035;BME280;4552;43.422;24.592;2023-04-27T06:27:40;99852.13;;;12.28;80.10
9035;BME280;4552;43.422;24.592;2023-04-27T06:30:07;99854.41;;;12.43;77.35
9035;BME280;4552;43.422;24.592;2023-04-27T06:32:35;99871.16;;;12.38;77.26
9035;BME280;4552;43.422;24.592;2023-04-27T06:35:04;99863.75;;;12.56;77.26
9035;BME280;4552;43.422;24.592;2023-04-27T06:37:31;99858.38;;;12.23;79.82
9035;BME280;4552;43.422;24.592;2023-04-27T06:40:04;99853.97;;;12.23;77.06
9035;BME280;4552;43.422;24.592;2023-04-27T06:42:32;99866.09;;;12.30;78.08
9035;BME280;4552;43.422;24.592;2023-04-27T06:45:10;99861.44;;;12.01;80.18
9035;BME280;4552;43.422;24.592;2023-04-27T06:47:37;99851.81;;;12.02;79.89
9035;BME280;4552;43.422;24.592;2023-04-27T06:50:18;99867.50;;;12.05;80.51
9035;BME280;4552;43.422;24.592;2023-04-27T06:52:45;99863.41;;;12.33;80.70
9035;BME280;4552;43.422;24.592;2023-04-27T06:55:22;99869.06;;;12.53;77.15
9035;BME280;4552;43.422;24.592;2023-04-27T06:57:49;99867.50;;;12.81;76.94
9035;BME280;4552;43.422;24.592;2023-04-27T07:00:17;99873.47;;;13.24;76.65
9035;BME280;4552;43.422;24.592;2023-04-27T07:02:44;99878.97;;;13.49;74.22
9035;BME280;4552;43.422;24.592;2023-04-27T07:05:11;99872.00;;;13.48;72.96
9035;BME280;4552;43.422;24.592;2023-04-27T07:17:52;99874.09;;;13.67;70.42
9035;BME280;4552;43.422;24.592;2023-04-27T07:20:20;99890.03;;;14.24;70.82
9035;BME280;4552;43.422;24.592;2023-04-27T07:50:05;99888.81;;;13.73;70.51
9035;BME280;4552;43.422;24.592;2023-04-27T08:29:34;99884.84;;;13.58;64.90
9035;BME280;4552;43.422;24.592;2023-04-27T08:32:15;99890.19;;;13.55;65.41
9035;BME280;4552;43.422;24.592;2023-04-27T08:34:42;99886.31;;;13.68;64.63
9035;BME280;4552;43.422;24.592;2023-04-27T08:40:42;99883.75;;;13.98;66.98
9035;BME280;4552;43.422;24.592;2023-04-27T08:43:09;99881.13;;;13.98;65.74
9035;BME280;4552;43.422;24.592;2023-04-27T08:45:51;99877.25;;;14.09;65.61
9035;BME280;4552;43.422;24.592;2023-04-27T08:48:18;99886.63;;;14.50;62.80
9035;BME280;4552;43.422;24.592;2023-04-27T08:51:08;99887.25;;;14.58;61.10
9035;BME280;4552;43.422;24.592;2023-04-27T09:10:26;99882.63;;;14.92;60.04
9035;BME280;4552;43.422;24.592;2023-04-27T09:13:04;99881.56;;;15.25;59.54
9035;BME280;4552;43.422;24.592;2023-04-27T09:15:40;99868.72;;;15.14;60.64
9035;BME280;4552;43.422;24.592;2023-04-27T09:18:21;99869.47;;;15.18;61.50
9035;BME280;4552;43.422;24.592;2023-04-27T09:20:50;99855.63;;;15.37;60.59
9035;BME280;4552;43.422;24.592;2023-04-27T11:45:34;99816.56;;;18.06;46.86
9035;BME280;4552;43.422;24.592;2023-04-27T11:48:05;99822.28;;;17.16;44.73
9035;BME280;4552;43.422;24.592;2023-04-27T11:50:32;99820.53;;;17.17;45.86
9035;BME280;4552;43.422;24.592;2023-04-27T11:53:01;99800.78;;;17.46;44.84
9035;BME280;4552;43.422;24.592;2023-04-27T11:55:28;99810.50;;;17.65;44.20
9035;BME280;4552;43.422;24.592;2023-04-27T11:58:04;99806.25;;;16.99;44.99
9035;BME280;4552;43.422;24.592;2023-04-27T12:00:32;99806.69;;;16.69;44.38
9035;BME280;4552;43.422;24.592;2023-04-27T12:03:16;99806.44;;;16.53;45.53
9035;BME280;4552;43.422;24.592;2023-04-27T12:05:49;99773.16;;;16.03;49.62
9035;BME280;4552;43.422;24.592;2023-04-27T12:08:18;99796.81;;;15.60;53.32
9035;BME280;4552;43.422;24.592;2023-04-27T12:10:46;99793.41;;;15.32;55.72
9035;BME280;4552;43.422;24.592;2023-04-27T12:24:00;99805.31;;;15.91;55.21
9035;BME280;4552;43.422;24.592;2023-04-27T12:26:27;99807.34;;;16.08;53.27
9035;BME280;4552;43.422;24.592;2023-04-27T12:28:55;99814.84;;;15.72;53.65
9035;BME280;4552;43.422;24.592;2023-04-27T12:31:22;99809.16;;;16.06;53.50
9035;BME280;4552;43.422;24.592;2023-04-27T12:33:50;99792.16;;;15.90;53.37
9035;BME280;4552;43.422;24.592;2023-04-27T12:36:17;99802.31;;;16.00;53.37
9035;BME280;4552;43.422;24.592;2023-04-27T12:38:44;99798.13;;;16.18;51.82
9035;BME280;4552;43.422;24.592;2023-04-27T12:41:13;99803.31;;;15.98;52.35
9035;BME280;4552;43.422;24.592;2023-04-27T12:43:43;99798.31;;;15.67;52.93
9035;BME280;4552;43.422;24.592;2023-04-27T12:46:20;99810.22;;;15.54;53.21
9035;BME280;4552;43.422;24.592;2023-04-27T12:48:47;99815.53;;;15.28;54.15
9035;BME280;4552;43.422;24.592;2023-04-27T12:51:16;99824.81;;;14.87;58.64
9035;BME280;4552;43.422;24.592;2023-04-27T12:53:44;99828.91;;;14.42;62.11
9035;BME280;4552;43.422;24.592;2023-04-27T12:56:12;99829.22;;;14.61;58.89
9035;BME280;4552;43.422;24.592;2023-04-27T12:58:39;99831.59;;;14.68;58.48
9035;BME280;4552;43.422;24.592;2023-04-27T13:01:07;99810.44;;;14.44;59.73
9035;BME280;4552;43.422;24.592;2023-04-27T13:03:46;99837.56;;;14.47;61.33
9035;BME280;4552;43.422;24.592;2023-04-27T13:06:14;99833.72;;;14.57;61.69
9035;BME280;4552;43.422;24.592;2023-04-27T13:08:42;99831.50;;;14.44;63.38
9035;BME280;4552;43.422;24.592;2023-04-27T13:11:08;99828.63;;;14.51;65.28
9035;BME280;4552;43.422;24.592;2023-04-27T13:13:37;99823.75;;;14.67;66.69
9035;BME280;4552;43.422;24.592;2023-04-27T13:16:23;99831.78;;;14.90;66.99
9035;BME280;4552;43.422;24.592;2023-04-27T13:18:51;99838.44;;;15.00;67.96
9035;BME280;4552;43.422;24.592;2023-04-27T13:21:19;99830.22;;;15.35;67.37
9035;BME280;4552;43.422;24.592;2023-04-27T13:24:06;99832.50;;;15.45;67.85
9035;BME280;4552;43.422;24.592;2023-04-27T13:26:33;99809.97;;;15.85;68.66
9035;BME280;4552;43.422;24.592;2023-04-27T13:29:01;99826.88;;;16.25;65.92
9035;BME280;4552;43.422;24.592;2023-04-27T13:31:52;99820.59;;;16.06;62.86
9035;BME280;4552;43.422;24.592;2023-04-27T13:34:20;99820.25;;;16.15;62.52
9035;BME280;4552;43.422;24.592;2023-04-27T14:18:38;99827.81;;;16.24;52.82
9035;BME280;4552;43.422;24.592;2023-04-27T14:21:05;99843.69;;;16.47;53.01
9035;BME280;4552;43.422;24.592;2023-04-27T14:27:04;99844.44;;;16.05;54.30
9035;BME280;4552;43.422;24.592;2023-04-27T14:29:31;99844.69;;;15.97;49.69
9035;BME280;4552;43.422;24.592;2023-04-27T14:31:58;99852.03;;;15.89;47.32
9035;BME280;4552;43.422;24.592;2023-04-27T14:34:27;99857.94;;;15.96;46.73
9035;BME280;4552;43.422;24.592;2023-04-27T14:36:58;99859.06;;;16.13;46.33
9035;BME280;4552;43.422;24.592;2023-04-27T16:20:28;99907.38;;;14.88;48.76
9035;BME280;4552;43.422;24.592;2023-04-27T16:22:56;99907.88;;;15.00;48.45
9035;BME280;4552;43.422;24.592;2023-04-27T16:25:48;99900.69;;;15.04;49.27
9035;BME280;4552;43.422;24.592;2023-04-27T16:28:15;99910.16;;;15.11;48.08
9035;BME280;4552;43.422;24.592;2023-04-27T16:30:42;99911.47;;;15.24;47.89
9035;BME280;4552;43.422;24.592;2023-04-27T16:33:17;99911.19;;;15.05;48.57
9035;BME280;4552;43.422;24.592;2023-04-27T16:35:59;99915.63;;;15.05;48.97
9035;BME280;4552;43.422;24.592;2023-04-27T16:38:40;99922.31;;;15.15;49.34
9035;BME280;4552;43.422;24.592;2023-04-27T16:41:27;99926.31;;;15.00;49.22
9035;BME280;4552;43.422;24.592;2023-04-27T16:43:55;99919.53;;;14.92;48.84
9035;BME280;4552;43.422;24.592;2023-04-27T16:46:24;99920.03;;;15.04;49.47
9035;BME280;4552;43.422;24.592;2023-04-27T16:49:06;99935.50;;;14.87;54.62
9035;BME280;4552;43.422;24.592;2023-04-27T16:52:00;99937.09;;;14.65;58.72
9035;BME280;4552;43.422;24.592;2023-04-27T16:54:29;99924.75;;;14.37;61.51
9035;BME280;4552;43.422;24.592;2023-04-27T16:57:15;99920.72;;;14.25;62.46
9035;BME280;4552;43.422;24.592;2023-04-27T16:59:54;99932.88;;;14.29;62.58
9035;BME280;4552;43.422;24.592;2023-04-27T17:02:35;99932.78;;;14.32;62.72
9035;BME280;4552;43.422;24.592;2023-04-27T17:05:20;99938.47;;;14.48;62.15
9035;BME280;4552;43.422;24.592;2023-04-27T17:07:51;99952.97;;;14.62;61.64
9035;BME280;4552;43.422;24.592;2023-04-27T17:10:32;99943.09;;;14.69;61.04
9035;BME280;4552;43.422;24.592;2023-04-27T17:13:06;99928.25;;;14.37;61.96
9035;BME280;4552;43.422;24.592;2023-04-27T17:15:53;99937.31;;;14.29;63.23
9035;BME280;4552;43.422;24.592;2023-04-27T17:18:20;99943.28;;;14.34;65.29
9035;BME280;4552;43.422;24.592;2023-04-27T17:51:43;99979.38;;;13.98;65.40
9035;BME280;4552;43.422;24.592;2023-04-27T17:54:29;99983.22;;;13.85;60.49
9035;BME280;4552;43.422;24.592;2023-04-27T17:57:11;99974.91;;;13.66;59.71
9035;BME280;4552;43.422;24.592;2023-04-27T17:59:46;99995.00;;;13.70;59.51
9035;BME280;4552;43.422;24.592;2023-04-27T18:02:14;99995.41;;;13.55;60.19
9035;BME280;4552;43.422;24.592;2023-04-27T18:04:44;99986.88;;;13.09;60.02
9035;BME280;4552;43.422;24.592;2023-04-27T18:07:12;99997.44;;;13.06;58.74
9035;BME280;4552;43.422;24.592;2023-04-27T18:09:45;99998.19;;;13.11;59.44
9035;BME280;4552;43.422;24.592;2023-04-27T18:12:14;100003.25;;;13.20;58.45
9035;BME280;4552;43.422;24.592;2023-04-27T18:14:45;99999.09;;;13.10;58.55
9035;BME280;4552;43.422;24.592;2023-04-27T18:17:12;99997.50;;;13.05;58.96
9035;BME280;4552;43.422;24.592;2023-04-27T18:19:39;100020.28;;;13.03;59.51
9035;BME280;4552;43.422;24.592;2023-04-27T18:22:06;100016.22;;;12.88;59.94
9035;BME280;4552;43.422;24.592;2023-04-27T20:16:30;100089.78;;;11.94;50.27
9035;BME280;4552;43.422;24.592;2023-04-27T20:19:15;100102.81;;;12.00;50.69
9035;BME280;4552;43.422;24.592;2023-04-27T20:21:51;100102.03;;;11.95;50.94
9035;BME280;4552;43.422;24.592;2023-04-27T20:24:18;100095.81;;;12.00;50.87
9035;BME280;4552;43.422;24.592;2023-04-27T20:26:59;100088.28;;;11.81;50.81
9035;BME280;4552;43.422;24.592;2023-04-27T20:29:27;100099.63;;;11.81;51.28
9035;BME280;4552;43.422;24.592;2023-04-27T20:31:56;100112.72;;;11.83;50.87
9035;BME280;4552;43.422;24.592;2023-04-27T20:34:29;100111.94;;;11.78;50.72
9035;BME280;4552;43.422;24.592;2023-04-27T20:36:56;100117.03;;;11.87;50.56
9035;BME280;4552;43.422;24.592;2023-04-27T21:06:32;100141.97;;;11.54;51.67
9035;BME280;4552;43.422;24.592;2023-04-27T21:08:59;100139.56;;;11.39;51.92
9035;BME280;4552;43.422;24.592;2023-04-27T21:11:31;100133.47;;;11.36;51.93
9035;BME280;4552;43.422;24.592;2023-04-27T21:13:58;100150.03;;;11.39;52.30
9035;BME280;4552;43.422;24.592;2023-04-27T21:16:29;100139.66;;;11.33;52.19
9035;BME280;4552;43.422;24.592;2023-04-27T21:18:56;100148.50;;;11.26;52.14
9035;BME280;4552;43.422;24.592;2023-04-27T21:21:38;100140.63;;;11.26;52.15
9035;BME280;4552;43.422;24.592;2023-04-27T21:24:05;100131.25;;;11.07;52.68
9035;BME280;4552;43.422;24.592;2023-04-27T21:26:46;100146.84;;;11.18;52.97
9035;BME280;4552;43.422;24.592;2023-04-27T21:29:13;100149.47;;;11.16;52.84
9035;BME280;4552;43.422;24.592;2023-04-27T21:31:40;100148.56;;;11.19;52.83
9035;BME280;4552;43.422;24.592;2023-04-27T21:34:07;100153.94;;;11.07;52.49
9035;BME280;4552;43.422;24.592;2023-04-27T21:36:34;100137.53;;;10.94;52.68
9035;BME280;4552;43.422;24.592;2023-04-27T22:16:03;100161.09;;;10.08;55.58
9035;BME280;4552;43.422;24.592;2023-04-27T22:18:33;100159.38;;;10.04;55.79
9035;BME280;4552;43.422;24.592;2023-04-27T22:21:03;100176.75;;;10.11;55.75
9035;BME280;4552;43.422;24.592;2023-04-27T22:46:59;100176.13;;;9.73;56.74
9035;BME280;4552;43.422;24.592;2023-04-27T22:49:30;100176.09;;;9.77;57.19
9035;BME280;4552;43.422;24.592;2023-04-27T22:52:16;100180.34;;;9.96;56.68
9035;BME280;4552;43.422;24.592;2023-04-27T22:54:43;100174.28;;;9.90;56.79
9035;BME280;4552;43.422;24.592;2023-04-27T22:57:25;100171.88;;;9.63;56.78
9035;BME280;4552;43.422;24.592;2023-04-27T23:00:11;100176.19;;;9.65;57.49
9035;BME280;4552;43.422;24.592;2023-04-27T23:02:43;100169.22;;;9.67;57.31
9035;BME280;4552;43.422;24.592;2023-04-27T23:05:37;100188.38;;;9.66;57.21
9035;BME280;4552;43.422;24.592;2023-04-27T23:08:04;100170.09;;;9.62;56.99
9035;BME280;4552;43.422;24.592;2023-04-27T23:10:31;100171.84;;;9.58;56.86
9035;BME280;4552;43.422;24.592;2023-04-27T23:13:03;100176.22;;;9.62;57.30
9035;BME280;4552;43.422;24.592;2023-04-27T23:15:39;100166.72;;;9.43;57.70
9035;BME280;4552;43.422;24.592;2023-04-27T23:18:08;100181.56;;;9.43;57.98
9035;BME280;4552;43.422;24.592;2023-04-27T23:20:37;100183.31;;;9.39;57.99
9035;BME280;4552;43.422;24.592;2023-04-27T23:23:04;100182.34;;;9.54;58.37
9035;BME280;4552;43.422;24.592;2023-04-27T23:25:31;100197.06;;;9.71;57.11
9035;BME280;4552;43.422;24.592;2023-04-27T23:27:58;100195.31;;;9.73;56.92
9035;BME280;4552;43.422;24.592;2023-04-27T23:30:25;100203.06;;;9.87;56.55
9035;BME280;4552;43.422;24.592;2023-04-27T23:32:56;100208.25;;;9.91;56.47
9035;BME280;4552;43.422;24.592;2023-04-27T23:35:27;100211.78;;;9.84;56.55
9035;BME280;4552;43.422;24.592;2023-04-27T23:37:56;100226.63;;;9.79;56.00
9035;BME280;4552;43.422;24.592;2023-04-27T23:40:33;100231.91;;;9.73;56.70
9035;BME280;4552;43.422;24.592;2023-04-27T23:43:00;100233.84;;;9.26;58.56
